createdAt,value
2019-01-29T00:01:25.383Z,71.05
2019-01-29T00:03:52.733Z,70.93
2019-01-29T00:06:19.943Z,70.91
2019-01-29T00:08:47.159Z,70.57
2019-01-29T00:11:16.416Z,70.22
2019-01-29T00:13:43.677Z,69.93
2019-01-29T00:16:10.887Z,70.28
2019-01-29T00:18:38.112Z,70.01
2019-01-29T00:21:05.363Z,70.00
2019-01-29T00:23:32.569Z,70.00
2019-01-29T00:25:59.810Z,69.99
2019-01-29T00:28:27.011Z,70.02
2019-01-29T00:30:54.217Z,69.78
2019-01-29T00:33:21.507Z,69.75
2019-01-29T00:35:48.711Z,69.27
2019-01-29T00:38:15.930Z,69.31
2019-01-29T00:40:43.195Z,70.18
2019-01-29T00:43:10.403Z,70.13
2019-01-29T00:45:37.639Z,69.98
2019-01-29T00:48:05.025Z,70.51
2019-01-29T00:50:32.238Z,71.35
2019-01-29T00:52:59.470Z,71.75
2019-01-29T00:55:26.714Z,72.21
2019-01-29T00:57:53.935Z,72.68
2019-01-29T01:00:22.006Z,72.75
2019-01-29T01:02:49.240Z,72.97
2019-01-29T01:05:16.753Z,73.00
2019-01-29T01:07:44.150Z,73.21
2019-01-29T01:10:13.644Z,74.13
2019-01-29T01:12:41.053Z,74.21
2019-01-29T01:15:09.547Z,74.58
2019-01-29T01:17:36.792Z,74.74
2019-01-29T01:20:05.664Z,75.03
2019-01-29T01:22:32.880Z,74.76
2019-01-29T01:25:00.267Z,74.29
2019-01-29T01:27:27.530Z,75.16
2019-01-29T01:29:54.768Z,75.03
2019-01-29T01:32:21.980Z,75.14
2019-01-29T01:34:49.178Z,75.57
2019-01-29T01:37:16.420Z,75.12
2019-01-29T01:39:43.648Z,75.31
2019-01-29T01:42:10.909Z,75.01
2019-01-29T01:44:38.108Z,75.58
2019-01-29T01:47:05.303Z,77.14
2019-01-29T01:49:32.557Z,75.50
2019-01-29T01:51:59.809Z,75.02
2019-01-29T01:54:27.074Z,74.96
2019-01-29T01:56:54.338Z,75.59
2019-01-29T01:59:21.560Z,74.65
2019-01-29T02:01:48.787Z,74.56
2019-01-29T02:04:16.044Z,74.24
2019-01-29T02:06:43.276Z,74.15
2019-01-29T02:09:17.904Z,74.28
2019-01-29T02:11:45.139Z,73.87
2019-01-29T02:14:12.464Z,73.73
2019-01-29T02:16:39.682Z,73.54
2019-01-29T02:19:15.774Z,73.36
2019-01-29T02:21:42.967Z,73.22
2019-01-29T02:24:10.185Z,72.97
2019-01-29T02:26:42.058Z,72.76
2019-01-29T02:29:09.303Z,72.77
2019-01-29T02:31:39.046Z,72.75
2019-01-29T02:34:09.553Z,72.93
2019-01-29T02:36:45.885Z,73.13
2019-01-29T02:39:18.184Z,73.62
2019-01-29T02:41:45.518Z,73.93
2019-01-29T02:44:12.742Z,74.42
2019-01-29T02:46:39.989Z,74.76
2019-01-29T02:49:07.199Z,75.07
2019-01-29T02:51:34.473Z,75.38
2019-01-29T02:54:01.674Z,74.66
2019-01-29T02:56:28.900Z,74.68
2019-01-29T02:58:56.172Z,74.48
2019-01-29T03:01:23.371Z,74.08
2019-01-29T03:03:50.580Z,74.15
2019-01-29T03:06:18.050Z,74.08
2019-01-29T03:08:45.263Z,74.04
2019-01-29T03:11:12.604Z,73.80
2019-01-29T03:18:03.059Z,73.50
2019-01-29T03:20:30.351Z,73.62
2019-01-29T03:22:57.666Z,73.64
2019-01-29T03:25:25.144Z,73.78
2019-01-29T03:27:52.512Z,73.73
2019-01-29T03:30:19.968Z,73.62
2019-01-29T03:32:47.393Z,73.43
2019-01-29T03:35:18.072Z,73.50
2019-01-29T03:37:45.269Z,73.67
2019-01-29T03:40:14.868Z,73.48
2019-01-29T03:42:42.233Z,73.50
2019-01-29T03:45:12.143Z,73.45
2019-01-29T03:47:39.380Z,73.27
2019-01-29T03:50:07.230Z,73.38
2019-01-29T03:52:34.458Z,73.38
2019-01-29T03:55:01.713Z,73.27
2019-01-29T03:57:28.915Z,73.13
2019-01-29T03:59:56.177Z,73.01
2019-01-29T04:02:23.406Z,72.92
2019-01-29T04:04:50.637Z,72.73
2019-01-29T04:07:17.934Z,72.61
2019-01-29T04:09:45.151Z,72.51
2019-01-29T04:12:12.371Z,72.45
2019-01-29T04:14:39.624Z,72.95
2019-01-29T04:17:06.848Z,74.02
2019-01-29T04:19:34.066Z,73.63
2019-01-29T04:22:01.441Z,73.23
2019-01-29T04:24:28.717Z,73.28
2019-01-29T04:26:56.036Z,73.43
2019-01-29T04:29:23.308Z,73.24
2019-01-29T04:31:50.525Z,73.14
2019-01-29T04:34:17.827Z,73.02
2019-01-29T04:36:45.041Z,73.00
2019-01-29T04:39:12.272Z,73.27
2019-01-29T04:41:39.527Z,73.37
2019-01-29T04:44:06.855Z,73.29
2019-01-29T04:46:34.094Z,73.10
2019-01-29T04:49:01.363Z,73.07
2019-01-29T04:51:28.560Z,72.96
2019-01-29T04:53:57.447Z,72.88
2019-01-29T04:56:25.133Z,72.73
2019-01-29T04:58:52.412Z,72.56
2019-01-29T05:01:19.673Z,72.39
2019-01-29T05:03:46.954Z,72.31
2019-01-29T05:06:14.180Z,72.26
2019-01-29T05:08:41.367Z,72.20
2019-01-29T05:11:08.647Z,72.16
2019-01-29T05:13:35.853Z,72.10
2019-01-29T05:16:03.076Z,71.94
2019-01-29T05:18:32.126Z,71.64
2019-01-29T05:20:59.508Z,71.69
2019-01-29T05:23:26.779Z,71.75
2019-01-29T05:25:54.110Z,71.81
2019-01-29T05:28:21.362Z,72.07
2019-01-29T05:30:48.646Z,72.73
2019-01-29T05:33:16.173Z,72.61
2019-01-29T05:35:43.391Z,72.52
2019-01-29T05:38:10.648Z,72.43
2019-01-29T05:40:37.861Z,72.43
2019-01-29T05:43:05.189Z,72.42
2019-01-29T05:45:32.466Z,72.41
2019-01-29T05:47:59.675Z,72.59
2019-01-29T05:50:26.885Z,72.80
2019-01-29T05:52:54.147Z,72.85
2019-01-29T05:55:21.390Z,72.89
2019-01-29T05:57:48.669Z,72.90
2019-01-29T06:00:23.120Z,73.01
2019-01-29T06:02:50.334Z,73.21
2019-01-29T06:05:17.895Z,73.30
2019-01-29T06:07:45.197Z,73.42
2019-01-29T06:10:12.938Z,73.24
2019-01-29T06:12:40.292Z,73.32
2019-01-29T06:15:09.531Z,73.31
2019-01-29T06:17:36.760Z,73.33
2019-01-29T06:20:06.224Z,73.34
2019-01-29T06:22:33.436Z,73.49
2019-01-29T06:25:00.683Z,73.85
2019-01-29T06:27:27.935Z,74.02
2019-01-29T06:29:55.281Z,74.11
2019-01-29T06:32:22.507Z,74.75
2019-01-29T06:34:49.774Z,74.69
2019-01-29T06:37:17.000Z,74.99
2019-01-29T06:39:44.223Z,75.05
2019-01-29T06:42:11.448Z,75.01
2019-01-29T06:44:41.722Z,75.52
2019-01-29T06:47:08.939Z,75.68
2019-01-29T06:49:36.238Z,75.66
2019-01-29T06:52:03.783Z,75.89
2019-01-29T06:54:34.298Z,75.74
2019-01-29T06:57:00.201Z,75.79
2019-01-29T06:59:27.434Z,75.87
2019-01-29T07:01:54.713Z,75.86
2019-01-29T07:04:21.963Z,75.86
2019-01-29T07:06:49.177Z,76.20
2019-01-29T07:09:16.430Z,76.11
2019-01-29T07:11:43.656Z,75.95
2019-01-29T07:14:10.858Z,75.58
2019-01-29T07:16:47.871Z,76.15
2019-01-29T07:19:19.520Z,75.93
2019-01-29T07:21:46.726Z,76.17
2019-01-29T07:24:13.974Z,76.06
2019-01-29T07:26:41.224Z,76.57
2019-01-29T07:29:08.452Z,76.76
2019-01-29T07:31:35.696Z,76.56
2019-01-29T07:34:03.014Z,77.00
2019-01-29T07:36:30.294Z,76.51
2019-01-29T07:38:57.541Z,76.64
2019-01-29T07:41:24.739Z,76.89
2019-01-29T07:43:51.990Z,76.66
2019-01-29T07:46:19.201Z,76.20
2019-01-29T07:48:46.420Z,76.23
2019-01-29T07:51:13.881Z,75.92
2019-01-29T07:53:41.265Z,75.89
2019-01-29T07:56:08.476Z,75.87
2019-01-29T07:58:35.739Z,75.67
2019-01-29T08:01:03.178Z,75.90
2019-01-29T08:03:30.438Z,75.95
2019-01-29T08:05:57.711Z,75.92
2019-01-29T08:08:24.953Z,76.26
2019-01-29T08:10:52.198Z,75.89
2019-01-29T08:13:19.473Z,75.89
2019-01-29T08:15:46.701Z,75.80
2019-01-29T08:18:13.956Z,75.83
2019-01-29T08:20:41.190Z,75.68
2019-01-29T08:23:08.429Z,75.77
2019-01-29T08:25:35.808Z,75.88
2019-01-29T08:28:04.193Z,75.73
2019-01-29T08:30:31.437Z,75.75
2019-01-29T08:32:58.687Z,75.37
2019-01-29T08:35:25.934Z,75.02
2019-01-29T08:37:53.216Z,74.96
2019-01-29T08:40:20.544Z,74.92
2019-01-29T08:42:47.772Z,75.02
2019-01-29T08:45:15.275Z,74.88
2019-01-29T08:47:42.510Z,74.88
2019-01-29T08:50:13.182Z,74.70
2019-01-29T08:52:40.434Z,74.41
2019-01-29T08:55:10.749Z,74.42
2019-01-29T08:57:36.735Z,74.28
2019-01-29T09:00:05.234Z,74.07
2019-01-29T09:02:32.639Z,74.05
2019-01-29T09:04:59.863Z,73.95
2019-01-29T09:07:27.151Z,74.01
2019-01-29T09:09:54.383Z,73.94
2019-01-29T09:12:21.641Z,73.83
2019-01-29T09:14:48.904Z,73.77
2019-01-29T09:17:18.987Z,73.67
2019-01-29T09:19:46.192Z,73.76
2019-01-29T09:22:13.442Z,73.84
2019-01-29T09:24:40.656Z,73.62
2019-01-29T09:27:07.899Z,73.82
2019-01-29T09:29:35.207Z,73.71
2019-01-29T09:32:02.430Z,73.72
2019-01-29T09:34:30.041Z,73.68
2019-01-29T09:36:57.284Z,73.75
2019-01-29T09:39:24.483Z,73.81
2019-01-29T09:41:51.702Z,73.83
2019-01-29T09:44:19.059Z,73.77
2019-01-29T09:46:46.280Z,73.75
2019-01-29T09:49:16.127Z,73.68
2019-01-29T09:51:43.362Z,73.89
2019-01-29T09:54:10.680Z,73.59
2019-01-29T09:56:37.902Z,73.63
2019-01-29T09:59:05.147Z,73.66
2019-01-29T10:01:32.403Z,73.54
2019-01-29T10:03:59.656Z,73.70
2019-01-29T10:06:26.921Z,73.77
2019-01-29T10:08:54.250Z,73.67
2019-01-29T10:11:21.450Z,73.55
2019-01-29T10:13:54.994Z,73.36
2019-01-29T10:16:22.226Z,73.59
2019-01-29T10:18:49.462Z,73.32
2019-01-29T10:21:16.954Z,73.07
2019-01-29T10:23:44.204Z,72.89
2019-01-29T10:26:11.420Z,73.17
2019-01-29T10:28:38.692Z,73.00
2019-01-29T10:31:06.294Z,72.63
2019-01-29T10:33:33.549Z,72.70
2019-01-29T10:36:00.756Z,72.92
2019-01-29T10:38:28.218Z,73.03
2019-01-29T10:40:55.470Z,72.99
2019-01-29T10:43:22.813Z,72.82
2019-01-29T10:45:50.018Z,73.25
2019-01-29T10:48:17.351Z,73.10
2019-01-29T10:50:44.591Z,72.61
2019-01-29T10:53:11.899Z,73.81
2019-01-29T10:55:47.036Z,72.93
2019-01-29T10:58:08.516Z,72.79
2019-01-29T11:00:38.580Z,72.34
2019-01-29T11:03:06.913Z,72.46
2019-01-29T11:05:34.723Z,72.38
2019-01-29T11:08:02.145Z,72.65
2019-01-29T11:10:29.409Z,72.20
2019-01-29T11:12:56.646Z,72.23
2019-01-29T11:15:26.528Z,72.00
2019-01-29T11:17:53.983Z,72.24
2019-01-29T11:20:21.701Z,72.39
2019-01-29T11:22:49.327Z,73.02
2019-01-29T11:25:19.473Z,72.48
2019-01-29T11:27:46.949Z,72.37
2019-01-29T11:30:16.286Z,72.28
2019-01-29T11:32:43.552Z,72.16
2019-01-29T11:35:11.074Z,71.98
2019-01-29T11:37:38.316Z,71.74
2019-01-29T11:40:08.760Z,71.52
2019-01-29T11:42:35.993Z,71.79
2019-01-29T11:45:04.607Z,71.75
2019-01-29T11:47:31.967Z,71.78
2019-01-29T11:49:59.182Z,71.74
2019-01-29T11:52:26.446Z,71.60
2019-01-29T11:54:53.806Z,71.35
2019-01-29T11:57:21.017Z,71.29
2019-01-29T11:59:53.919Z,71.49
2019-01-29T12:02:28.314Z,71.54
2019-01-29T12:04:50.335Z,71.29
2019-01-29T12:07:19.512Z,71.43
2019-01-29T12:09:46.836Z,71.28
2019-01-29T12:12:14.145Z,71.45
2019-01-29T12:14:41.384Z,72.33
2019-01-29T12:17:08.598Z,72.24
2019-01-29T12:19:35.824Z,71.70
2019-01-29T12:22:03.074Z,70.58
2019-01-29T12:24:30.327Z,70.42
2019-01-29T12:26:57.583Z,70.81
2019-01-29T12:29:24.843Z,70.62
2019-01-29T12:31:52.064Z,70.44
2019-01-29T12:34:19.292Z,70.05
2019-01-29T12:36:46.572Z,70.28
2019-01-29T12:39:13.822Z,70.76
2019-01-29T12:41:41.141Z,70.75
2019-01-29T12:44:08.377Z,70.12
2019-01-29T12:46:35.631Z,70.58
2019-01-29T12:49:03.350Z,70.18
2019-01-29T12:51:47.027Z,70.25
2019-01-29T12:54:16.540Z,70.16
2019-01-29T12:56:43.826Z,71.01
2019-01-29T12:59:11.079Z,70.73
2019-01-29T13:01:38.305Z,70.07
2019-01-29T13:04:05.526Z,70.82
2019-01-29T13:06:32.832Z,70.08
2019-01-29T13:09:00.066Z,69.92
2019-01-29T13:11:27.313Z,71.06
2019-01-29T13:13:54.889Z,69.58
2019-01-29T13:16:22.315Z,69.03
2019-01-29T13:18:49.588Z,69.49
2019-01-29T13:21:16.843Z,69.83
2019-01-29T13:23:44.089Z,70.49
2019-01-29T13:26:11.545Z,70.67
2019-01-29T13:28:38.791Z,69.00
2019-01-29T13:31:06.070Z,69.13
2019-01-29T13:33:33.336Z,69.35
2019-01-29T13:36:00.685Z,69.67
2019-01-29T13:38:27.906Z,68.78
2019-01-29T13:40:55.307Z,69.78
2019-01-29T13:43:22.598Z,68.42
2019-01-29T13:45:49.814Z,68.83
2019-01-29T13:48:17.378Z,67.35
2019-01-29T13:50:48.018Z,68.39
2019-01-29T13:53:15.355Z,67.72
2019-01-29T13:55:42.792Z,67.51
2019-01-29T13:58:10.148Z,66.44
2019-01-29T14:00:37.695Z,65.80
2019-01-29T14:03:05.755Z,67.34
2019-01-29T14:05:33.010Z,65.80
2019-01-29T14:08:00.380Z,65.74
2019-01-29T14:10:27.888Z,65.90
2019-01-29T14:12:55.128Z,66.11
2019-01-29T14:15:30.446Z,66.05
2019-01-29T14:17:57.644Z,66.65
2019-01-29T14:20:24.885Z,66.48
2019-01-29T14:22:52.144Z,66.61
2019-01-29T14:25:19.365Z,67.38
2019-01-29T14:27:46.599Z,66.41
2019-01-29T14:30:16.499Z,66.23
2019-01-29T14:32:43.750Z,66.69
2019-01-29T14:35:11.200Z,66.19
2019-01-29T14:38:18.421Z,66.34
2019-01-29T14:40:45.644Z,66.59
2019-01-29T14:43:16.191Z,66.08
2019-01-29T14:45:43.444Z,66.39
2019-01-29T14:48:10.808Z,67.05
2019-01-29T14:50:38.029Z,66.42
2019-01-29T14:53:05.400Z,66.20
2019-01-29T14:55:32.727Z,66.47
2019-01-29T14:58:00.401Z,65.75
2019-01-29T15:00:29.257Z,65.67
2019-01-29T15:02:56.484Z,65.38
2019-01-29T15:05:23.921Z,65.76
2019-01-29T15:07:51.233Z,65.40
2019-01-29T15:10:19.375Z,66.06
2019-01-29T15:12:46.783Z,66.33
2019-01-29T15:15:14.987Z,65.82
2019-01-29T15:17:54.884Z,65.55
2019-01-29T15:20:22.165Z,66.09
2019-01-29T15:22:49.535Z,66.41
2019-01-29T15:25:19.260Z,64.78
2019-01-29T15:27:47.392Z,64.67
2019-01-29T15:30:20.821Z,64.47
2019-01-29T15:32:48.305Z,64.67
2019-01-29T15:35:15.826Z,64.56
2019-01-29T15:37:45.707Z,64.93
2019-01-29T15:40:14.706Z,65.34
2019-01-29T15:42:42.641Z,65.03
2019-01-29T15:45:14.855Z,65.11
2019-01-29T15:47:42.434Z,65.07
2019-01-29T15:50:12.447Z,64.62
2019-01-29T15:52:48.305Z,64.45
2019-01-29T15:55:10.405Z,64.52
2019-01-29T15:57:37.663Z,64.25
2019-01-29T16:00:08.202Z,64.61
2019-01-29T16:02:35.415Z,64.07
2019-01-29T16:05:03.763Z,64.01
2019-01-29T16:07:31.020Z,64.12
2019-01-29T16:09:58.270Z,63.84
2019-01-29T16:12:25.490Z,64.00
2019-01-29T16:14:52.894Z,64.00
2019-01-29T16:17:20.261Z,64.18
2019-01-29T16:19:47.495Z,64.15
2019-01-29T16:22:14.706Z,64.18
2019-01-29T16:24:41.982Z,64.14
2019-01-29T16:27:09.302Z,63.89
2019-01-29T16:29:36.610Z,63.61
2019-01-29T16:32:04.333Z,63.72
2019-01-29T16:34:31.561Z,63.61
2019-01-29T16:36:58.808Z,63.34
2019-01-29T16:39:26.058Z,63.50
2019-01-29T16:41:53.283Z,63.44
2019-01-29T16:44:20.485Z,63.66
2019-01-29T16:46:47.747Z,63.65
2019-01-29T16:49:15.029Z,63.52
2019-01-29T16:51:42.747Z,63.31
2019-01-29T16:54:10.098Z,63.86
2019-01-29T16:56:37.374Z,63.56
2019-01-29T16:59:04.572Z,63.53
2019-01-29T17:01:31.853Z,63.46
2019-01-29T17:03:59.082Z,63.55
2019-01-29T17:06:26.456Z,63.63
2019-01-29T17:08:53.695Z,63.56
2019-01-29T17:11:20.924Z,63.46
2019-01-29T17:13:48.218Z,63.58
2019-01-29T17:16:15.491Z,63.60
2019-01-29T17:18:42.700Z,63.59
2019-01-29T17:21:09.940Z,63.55
2019-01-29T17:23:37.172Z,63.57
2019-01-29T17:26:04.511Z,63.71
2019-01-29T17:28:31.792Z,63.75
2019-01-29T17:30:59.048Z,63.80
2019-01-29T17:33:26.553Z,63.83
2019-01-29T17:35:53.778Z,63.78
2019-01-29T17:38:21.019Z,63.86
2019-01-29T17:40:48.260Z,63.94
2019-01-29T17:43:15.528Z,64.01
2019-01-29T17:45:44.334Z,64.12
2019-01-29T17:48:11.574Z,64.17
2019-01-29T17:50:40.417Z,64.33
2019-01-29T17:53:07.720Z,64.39
2019-01-29T17:55:37.076Z,64.33
2019-01-29T17:58:05.130Z,64.48
2019-01-29T18:00:34.167Z,64.49
2019-01-29T18:03:01.816Z,64.44
2019-01-29T18:05:30.895Z,64.70
2019-01-29T18:07:58.149Z,64.75
2019-01-29T18:10:25.469Z,64.73
2019-01-29T18:12:52.702Z,64.75
2019-01-29T18:15:21.887Z,64.83
2019-01-29T18:17:49.436Z,64.77
2019-01-29T18:20:16.874Z,64.79
2019-01-29T18:22:44.303Z,64.77
2019-01-29T18:25:12.017Z,64.72
2019-01-29T18:27:39.292Z,64.86
2019-01-29T18:30:09.913Z,64.88
2019-01-29T18:32:37.165Z,64.99
2019-01-29T18:35:05.287Z,64.94
2019-01-29T18:37:32.503Z,64.98
2019-01-29T18:39:59.709Z,65.08
2019-01-29T18:42:26.944Z,65.12
2019-01-29T18:44:54.300Z,65.01
2019-01-29T18:47:21.512Z,65.25
2019-01-29T18:49:48.761Z,65.35
2019-01-29T18:52:16.004Z,64.96
2019-01-29T18:54:43.205Z,65.40
2019-01-29T18:57:10.556Z,65.41
2019-01-29T18:59:37.737Z,65.26
2019-01-29T19:02:04.994Z,65.32
2019-01-29T19:04:32.206Z,64.17
2019-01-29T19:06:59.428Z,65.58
2019-01-29T19:09:26.792Z,65.51
2019-01-29T19:11:54.030Z,65.45
2019-01-29T19:14:21.264Z,65.53
2019-01-29T19:16:48.509Z,65.55
2019-01-29T19:19:15.745Z,65.40
2019-01-29T19:21:43.205Z,65.14
2019-01-29T19:24:10.452Z,65.58
2019-01-29T19:26:37.714Z,65.57
2019-01-29T19:29:06.573Z,65.59
2019-01-29T19:31:34.001Z,65.48
2019-01-29T19:34:11.877Z,65.70
2019-01-29T19:36:39.110Z,65.74
2019-01-29T19:39:08.021Z,65.86
2019-01-29T19:41:35.223Z,65.77
2019-01-29T19:44:02.460Z,64.91
2019-01-29T19:46:30.221Z,65.95
2019-01-29T19:48:57.750Z,66.10
2019-01-29T19:51:25.045Z,65.95
2019-01-29T19:53:52.276Z,66.50
2019-01-29T19:56:19.520Z,66.63
2019-01-29T19:58:46.797Z,66.47
2019-01-29T20:01:17.297Z,66.46
2019-01-29T20:03:44.594Z,66.68
2019-01-29T20:06:11.931Z,66.52
2019-01-29T20:08:39.171Z,66.53
2019-01-29T20:11:06.691Z,66.22
2019-01-29T20:13:33.930Z,66.90
2019-01-29T20:16:01.188Z,67.17
2019-01-29T20:18:28.404Z,65.96
2019-01-29T20:20:55.684Z,67.42
2019-01-29T20:23:22.952Z,67.17
2019-01-29T20:25:50.158Z,66.86
2019-01-29T20:28:17.364Z,66.67
2019-01-29T20:30:44.613Z,67.18
2019-01-29T20:33:11.900Z,66.96
2019-01-29T20:35:39.109Z,67.05
2019-01-29T20:38:06.549Z,67.10
2019-01-29T20:40:33.770Z,67.30
2019-01-29T20:43:01.186Z,67.30
2019-01-29T20:45:29.802Z,67.23
2019-01-29T20:47:56.982Z,67.11
2019-01-29T20:50:27.199Z,66.47
2019-01-29T20:52:54.500Z,67.37
2019-01-29T20:55:21.739Z,67.62
2019-01-29T20:57:48.992Z,67.72
2019-01-29T21:00:22.803Z,67.47
2019-01-29T21:02:53.531Z,67.74
2019-01-29T21:05:23.717Z,67.87
2019-01-29T21:07:51.013Z,67.64
2019-01-29T21:10:19.490Z,67.84
2019-01-29T21:12:53.696Z,67.76
2019-01-29T21:15:21.653Z,67.26
2019-01-29T21:17:48.873Z,68.09
2019-01-29T21:20:21.124Z,67.97
2019-01-29T21:22:48.418Z,68.28
2019-01-29T21:25:15.693Z,67.99
2019-01-29T21:27:42.903Z,68.36
2019-01-29T21:30:39.944Z,68.37
2019-01-29T21:33:07.254Z,68.03
2019-01-29T21:35:34.486Z,67.35
2019-01-29T21:38:01.738Z,68.02
2019-01-29T21:40:28.990Z,67.75
2019-01-29T21:42:56.232Z,67.86
2019-01-29T21:45:23.855Z,68.38
2019-01-29T21:47:51.443Z,68.29
2019-01-29T21:50:23.419Z,68.17
2019-01-29T21:52:50.860Z,68.18
2019-01-29T21:55:18.286Z,68.17
2019-01-29T21:57:45.532Z,68.33
2019-01-29T22:00:19.203Z,68.46
2019-01-29T22:02:46.466Z,68.30
2019-01-29T22:05:13.932Z,67.46
2019-01-29T22:07:41.208Z,67.92
2019-01-29T22:10:09.155Z,67.90
2019-01-29T22:12:36.378Z,67.95
2019-01-29T22:15:05.460Z,67.59
2019-01-29T22:17:32.684Z,67.77
2019-01-29T22:19:59.921Z,67.68
2019-01-29T22:22:27.155Z,68.41
2019-01-29T22:24:54.404Z,67.99
2019-01-29T22:27:21.617Z,67.84
2019-01-29T22:29:48.856Z,67.78
2019-01-29T22:32:16.152Z,67.76
2019-01-29T22:34:43.393Z,67.63
2019-01-29T22:37:10.661Z,67.63
2019-01-29T22:39:37.871Z,67.72
2019-01-29T22:42:05.180Z,67.74
2019-01-29T22:44:32.438Z,67.83
2019-01-29T22:46:59.672Z,67.66
2019-01-29T22:49:26.888Z,67.61
2019-01-29T22:51:54.179Z,67.23
2019-01-29T22:54:21.398Z,67.79
2019-01-29T22:56:48.617Z,67.57
2019-01-29T22:59:18.342Z,67.50
2019-01-29T23:01:45.033Z,67.52
2019-01-29T23:04:31.464Z,67.13
2019-01-29T23:07:31.517Z,67.80
2019-01-29T23:09:58.768Z,67.98
2019-01-29T23:12:25.991Z,67.89
2019-01-29T23:14:53.219Z,67.73
2019-01-29T23:17:20.695Z,67.78
2019-01-29T23:19:47.923Z,67.62
2019-01-29T23:22:15.148Z,67.51
2019-01-29T23:24:42.393Z,67.46
2019-01-29T23:27:09.728Z,67.30
2019-01-29T23:29:43.223Z,67.77
2019-01-29T23:32:06.225Z,67.69
2019-01-29T23:34:33.525Z,67.38
2019-01-29T23:37:00.743Z,67.69
2019-01-29T23:39:27.996Z,67.78
2019-01-29T23:41:55.197Z,67.60
2019-01-29T23:44:22.410Z,67.62
2019-01-29T23:46:49.644Z,68.09
2019-01-29T23:49:16.845Z,67.87
2019-01-29T23:51:44.051Z,67.95
2019-01-29T23:54:11.355Z,67.90
2019-01-29T23:56:38.561Z,68.06
2019-01-29T23:59:05.770Z,68.13
